sensor_id;sensor_type;location;lat;lon;timestamp;P1;durP1;ratioP1;P2;durP2;ratioP2
80398;SDS011;69722;48.642;9.142;2023-06-19T00:01:42;11.30;;;8.13;;
80398;SDS011;69722;48.642;9.142;2023-06-19T00:04:07;11.80;;;8.07;;
80398;SDS011;69722;48.642;9.142;2023-06-19T00:06:33;10.80;;;8.38;;
80398;SDS011;69722;48.642;9.142;2023-06-19T00:08:59;12.07;;;7.90;;
80398;SDS011;69722;48.642;9.142;2023-06-19T00:11:24;13.52;;;8.63;;
80398;SDS011;69722;48.642;9.142;2023-06-19T00:13:50;12.63;;;8.57;;
80398;SDS011;69722;48.642;9.142;2023-06-19T00:16:15;8.73;;;7.05;;
80398;SDS011;69722;48.642;9.142;2023-06-19T00:18:41;11.97;;;8.13;;
80398;SDS011;69722;48.642;9.142;2023-06-19T00:21:07;10.85;;;7.57;;
80398;SDS011;69722;48.642;9.142;2023-06-19T00:23:33;10.30;;;6.68;;
80398;SDS011;69722;48.642;9.142;2023-06-19T00:25:59;36.63;;;10.60;;
80398;SDS011;69722;48.642;9.142;2023-06-19T00:30:51;12.33;;;7.10;;
80398;SDS011;69722;48.642;9.142;2023-06-19T00:33:16;9.13;;;6.87;;
80398;SDS011;69722;48.642;9.142;2023-06-19T00:35:42;9.43;;;7.77;;
80398;SDS011;69722;48.642;9.142;2023-06-19T00:38:07;8.87;;;6.53;;
80398;SDS011;69722;48.642;9.142;2023-06-19T00:40:33;9.48;;;6.53;;
80398;SDS011;69722;48.642;9.142;2023-06-19T00:42:58;10.27;;;6.85;;
80398;SDS011;69722;48.642;9.142;2023-06-19T00:45:24;10.85;;;6.95;;
80398;SDS011;69722;48.642;9.142;2023-06-19T00:47:50;10.65;;;6.28;;
80398;SDS011;69722;48.642;9.142;2023-06-19T00:50:17;8.75;;;6.57;;
80398;SDS011;69722;48.642;9.142;2023-06-19T00:52:42;11.38;;;6.60;;
80398;SDS011;69722;48.642;9.142;2023-06-19T00:55:08;9.80;;;7.10;;
80398;SDS011;69722;48.642;9.142;2023-06-19T00:57:34;8.75;;;6.50;;
80398;SDS011;69722;48.642;9.142;2023-06-19T01:00:00;13.73;;;7.63;;
80398;SDS011;69722;48.642;9.142;2023-06-19T01:02:26;9.88;;;7.80;;
80398;SDS011;69722;48.642;9.142;2023-06-19T01:04:51;12.68;;;7.45;;
80398;SDS011;69722;48.642;9.142;2023-06-19T01:07:18;12.55;;;8.07;;
80398;SDS011;69722;48.642;9.142;2023-06-19T01:09:48;9.18;;;7.43;;
80398;SDS011;69722;48.642;9.142;2023-06-19T01:12:18;11.48;;;7.28;;
80398;SDS011;69722;48.642;9.142;2023-06-19T01:15:04;9.85;;;6.28;;
80398;SDS011;69722;48.642;9.142;2023-06-19T01:17:30;8.52;;;6.85;;
80398;SDS011;69722;48.642;9.142;2023-06-19T01:19:56;8.30;;;6.80;;
80398;SDS011;69722;48.642;9.142;2023-06-19T01:22:28;9.57;;;7.10;;
80398;SDS011;69722;48.642;9.142;2023-06-19T01:24:54;10.30;;;6.80;;
80398;SDS011;69722;48.642;9.142;2023-06-19T01:27:20;8.87;;;6.50;;
80398;SDS011;69722;48.642;9.142;2023-06-19T01:29:46;8.90;;;6.63;;
80398;SDS011;69722;48.642;9.142;2023-06-19T01:32:16;9.18;;;7.18;;
80398;SDS011;69722;48.642;9.142;2023-06-19T01:34:44;9.20;;;7.25;;
80398;SDS011;69722;48.642;9.142;2023-06-19T01:39:36;8.93;;;6.77;;
80398;SDS011;69722;48.642;9.142;2023-06-19T01:42:02;9.25;;;6.97;;
80398;SDS011;69722;48.642;9.142;2023-06-19T01:44:28;10.60;;;6.85;;
80398;SDS011;69722;48.642;9.142;2023-06-19T01:46:53;9.77;;;7.00;;
80398;SDS011;69722;48.642;9.142;2023-06-19T01:49:18;8.77;;;6.55;;
80398;SDS011;69722;48.642;9.142;2023-06-19T01:51:45;13.02;;;6.68;;
80398;SDS011;69722;48.642;9.142;2023-06-19T01:54:10;9.68;;;6.68;;
80398;SDS011;69722;48.642;9.142;2023-06-19T01:56:36;9.30;;;6.57;;
80398;SDS011;69722;48.642;9.142;2023-06-19T01:59:01;10.50;;;6.65;;
80398;SDS011;69722;48.642;9.142;2023-06-19T02:01:27;8.82;;;6.38;;
80398;SDS011;69722;48.642;9.142;2023-06-19T02:03:52;9.43;;;5.55;;
80398;SDS011;69722;48.642;9.142;2023-06-19T02:06:17;8.13;;;5.53;;
80398;SDS011;69722;48.642;9.142;2023-06-19T02:08:43;6.38;;;5.45;;
80398;SDS011;69722;48.642;9.142;2023-06-19T02:11:08;7.37;;;5.70;;
80398;SDS011;69722;48.642;9.142;2023-06-19T02:13:34;8.73;;;6.10;;
80398;SDS011;69722;48.642;9.142;2023-06-19T02:15:59;7.50;;;5.47;;
80398;SDS011;69722;48.642;9.142;2023-06-19T02:18:24;7.73;;;5.60;;
80398;SDS011;69722;48.642;9.142;2023-06-19T02:20:50;6.60;;;5.25;;
80398;SDS011;69722;48.642;9.142;2023-06-19T02:23:15;8.07;;;6.17;;
80398;SDS011;69722;48.642;9.142;2023-06-19T02:25:40;7.43;;;5.00;;
80398;SDS011;69722;48.642;9.142;2023-06-19T02:28:06;8.33;;;5.27;;
80398;SDS011;69722;48.642;9.142;2023-06-19T02:30:31;7.07;;;5.40;;
80398;SDS011;69722;48.642;9.142;2023-06-19T02:32:56;8.70;;;5.13;;
80398;SDS011;69722;48.642;9.142;2023-06-19T02:35:22;7.15;;;5.15;;
80398;SDS011;69722;48.642;9.142;2023-06-19T02:37:47;7.35;;;5.05;;
80398;SDS011;69722;48.642;9.142;2023-06-19T02:40:16;6.70;;;4.97;;
80398;SDS011;69722;48.642;9.142;2023-06-19T02:42:41;6.35;;;4.50;;
80398;SDS011;69722;48.642;9.142;2023-06-19T02:45:07;7.30;;;5.40;;
80398;SDS011;69722;48.642;9.142;2023-06-19T02:47:32;6.72;;;5.18;;
80398;SDS011;69722;48.642;9.142;2023-06-19T02:49:58;6.90;;;4.97;;
80398;SDS011;69722;48.642;9.142;2023-06-19T02:52:25;6.85;;;4.95;;
80398;SDS011;69722;48.642;9.142;2023-06-19T02:54:50;6.32;;;5.18;;
80398;SDS011;69722;48.642;9.142;2023-06-19T02:57:16;7.20;;;5.50;;
80398;SDS011;69722;48.642;9.142;2023-06-19T02:59:41;9.80;;;5.10;;
80398;SDS011;69722;48.642;9.142;2023-06-19T03:02:06;9.10;;;5.13;;
80398;SDS011;69722;48.642;9.142;2023-06-19T03:04:31;7.60;;;5.95;;
80398;SDS011;69722;48.642;9.142;2023-06-19T03:06:57;5.67;;;4.73;;
80398;SDS011;69722;48.642;9.142;2023-06-19T03:09:22;6.73;;;4.90;;
80398;SDS011;69722;48.642;9.142;2023-06-19T03:11:47;6.15;;;4.88;;
80398;SDS011;69722;48.642;9.142;2023-06-19T03:14:13;6.50;;;4.87;;
80398;SDS011;69722;48.642;9.142;2023-06-19T03:16:38;6.70;;;5.10;;
80398;SDS011;69722;48.642;9.142;2023-06-19T03:19:04;6.90;;;5.23;;
80398;SDS011;69722;48.642;9.142;2023-06-19T03:21:29;7.93;;;5.95;;
80398;SDS011;69722;48.642;9.142;2023-06-19T03:23:54;5.90;;;4.73;;
80398;SDS011;69722;48.642;9.142;2023-06-19T03:26:20;6.50;;;4.47;;
80398;SDS011;69722;48.642;9.142;2023-06-19T03:28:45;7.25;;;4.95;;
80398;SDS011;69722;48.642;9.142;2023-06-19T03:31:12;6.85;;;5.00;;
80398;SDS011;69722;48.642;9.142;2023-06-19T03:33:38;7.82;;;4.90;;
80398;SDS011;69722;48.642;9.142;2023-06-19T03:36:03;7.10;;;4.70;;
80398;SDS011;69722;48.642;9.142;2023-06-19T03:38:29;6.70;;;4.68;;
80398;SDS011;69722;48.642;9.142;2023-06-19T03:40:54;8.13;;;5.22;;
80398;SDS011;69722;48.642;9.142;2023-06-19T03:43:20;7.50;;;5.55;;
80398;SDS011;69722;48.642;9.142;2023-06-19T03:45:45;10.10;;;5.23;;
80398;SDS011;69722;48.642;9.142;2023-06-19T03:48:10;8.00;;;5.43;;
80398;SDS011;69722;48.642;9.142;2023-06-19T03:50:36;6.03;;;4.60;;
80398;SDS011;69722;48.642;9.142;2023-06-19T03:53:01;7.30;;;5.35;;
80398;SDS011;69722;48.642;9.142;2023-06-19T03:55:27;5.82;;;4.30;;
80398;SDS011;69722;48.642;9.142;2023-06-19T03:57:52;8.53;;;5.13;;
80398;SDS011;69722;48.642;9.142;2023-06-19T04:00:18;7.53;;;5.22;;
80398;SDS011;69722;48.642;9.142;2023-06-19T04:02:44;6.97;;;5.07;;
80398;SDS011;69722;48.642;9.142;2023-06-19T04:05:11;7.07;;;4.72;;
80398;SDS011;69722;48.642;9.142;2023-06-19T04:07:37;6.55;;;4.88;;
80398;SDS011;69722;48.642;9.142;2023-06-19T04:10:02;7.70;;;4.40;;
80398;SDS011;69722;48.642;9.142;2023-06-19T04:12:28;8.43;;;4.82;;
80398;SDS011;69722;48.642;9.142;2023-06-19T04:14:53;7.47;;;4.70;;
80398;SDS011;69722;48.642;9.142;2023-06-19T04:17:18;7.40;;;5.23;;
80398;SDS011;69722;48.642;9.142;2023-06-19T04:19:44;6.95;;;4.78;;
80398;SDS011;69722;48.642;9.142;2023-06-19T04:22:09;6.73;;;4.80;;
80398;SDS011;69722;48.642;9.142;2023-06-19T04:24:35;8.68;;;4.90;;
80398;SDS011;69722;48.642;9.142;2023-06-19T04:27:00;7.80;;;4.90;;
80398;SDS011;69722;48.642;9.142;2023-06-19T04:29:25;5.37;;;4.10;;
80398;SDS011;69722;48.642;9.142;2023-06-19T04:31:51;7.67;;;5.40;;
80398;SDS011;69722;48.642;9.142;2023-06-19T04:34:16;8.93;;;5.00;;
80398;SDS011;69722;48.642;9.142;2023-06-19T04:36:46;7.97;;;4.72;;
80398;SDS011;69722;48.642;9.142;2023-06-19T04:39:12;7.80;;;4.53;;
80398;SDS011;69722;48.642;9.142;2023-06-19T04:41:37;7.75;;;4.97;;
80398;SDS011;69722;48.642;9.142;2023-06-19T04:44:04;5.72;;;4.15;;
80398;SDS011;69722;48.642;9.142;2023-06-19T04:46:33;6.28;;;4.78;;
80398;SDS011;69722;48.642;9.142;2023-06-19T04:48:58;7.07;;;4.90;;
80398;SDS011;69722;48.642;9.142;2023-06-19T04:51:24;7.25;;;4.50;;
80398;SDS011;69722;48.642;9.142;2023-06-19T04:56:16;5.90;;;4.37;;
80398;SDS011;69722;48.642;9.142;2023-06-19T04:58:44;6.63;;;4.80;;
80398;SDS011;69722;48.642;9.142;2023-06-19T05:01:14;5.63;;;4.15;;
80398;SDS011;69722;48.642;9.142;2023-06-19T05:03:40;6.50;;;4.43;;
80398;SDS011;69722;48.642;9.142;2023-06-19T05:06:06;5.97;;;4.28;;
80398;SDS011;69722;48.642;9.142;2023-06-19T05:08:31;7.60;;;4.32;;
80398;SDS011;69722;48.642;9.142;2023-06-19T05:10:57;6.10;;;4.03;;
80398;SDS011;69722;48.642;9.142;2023-06-19T05:13:23;6.20;;;3.97;;
80398;SDS011;69722;48.642;9.142;2023-06-19T05:15:48;5.50;;;4.18;;
80398;SDS011;69722;48.642;9.142;2023-06-19T05:18:15;6.50;;;4.55;;
80398;SDS011;69722;48.642;9.142;2023-06-19T05:20:40;5.60;;;4.00;;
80398;SDS011;69722;48.642;9.142;2023-06-19T05:23:05;4.83;;;3.40;;
80398;SDS011;69722;48.642;9.142;2023-06-19T05:25:31;4.85;;;3.70;;
80398;SDS011;69722;48.642;9.142;2023-06-19T05:27:57;6.63;;;4.50;;
80398;SDS011;69722;48.642;9.142;2023-06-19T05:30:23;6.18;;;4.03;;
80398;SDS011;69722;48.642;9.142;2023-06-19T05:32:48;5.10;;;3.60;;
80398;SDS011;69722;48.642;9.142;2023-06-19T05:35:13;4.87;;;3.40;;
80398;SDS011;69722;48.642;9.142;2023-06-19T05:37:39;6.17;;;4.20;;
80398;SDS011;69722;48.642;9.142;2023-06-19T05:40:05;5.13;;;3.63;;
80398;SDS011;69722;48.642;9.142;2023-06-19T05:42:31;5.65;;;3.85;;
80398;SDS011;69722;48.642;9.142;2023-06-19T05:44:56;8.60;;;3.60;;
80398;SDS011;69722;48.642;9.142;2023-06-19T05:47:22;7.03;;;4.05;;
80398;SDS011;69722;48.642;9.142;2023-06-19T05:49:50;9.10;;;4.15;;
80398;SDS011;69722;48.642;9.142;2023-06-19T05:52:16;7.55;;;3.65;;
80398;SDS011;69722;48.642;9.142;2023-06-19T05:54:41;5.38;;;3.75;;
80398;SDS011;69722;48.642;9.142;2023-06-19T05:57:07;8.60;;;3.63;;
80398;SDS011;69722;48.642;9.142;2023-06-19T05:59:32;4.95;;;3.70;;
80398;SDS011;69722;48.642;9.142;2023-06-19T06:01:57;5.00;;;3.53;;
80398;SDS011;69722;48.642;9.142;2023-06-19T06:04:22;5.07;;;3.60;;
80398;SDS011;69722;48.642;9.142;2023-06-19T06:06:48;5.17;;;3.63;;
80398;SDS011;69722;48.642;9.142;2023-06-19T06:09:14;6.22;;;3.92;;
80398;SDS011;69722;48.642;9.142;2023-06-19T06:11:40;4.65;;;3.42;;
80398;SDS011;69722;48.642;9.142;2023-06-19T06:14:05;5.40;;;3.80;;
80398;SDS011;69722;48.642;9.142;2023-06-19T06:16:30;5.63;;;3.35;;
80398;SDS011;69722;48.642;9.142;2023-06-19T06:18:56;8.33;;;4.37;;
80398;SDS011;69722;48.642;9.142;2023-06-19T06:21:21;5.63;;;3.93;;
80398;SDS011;69722;48.642;9.142;2023-06-19T06:23:46;5.00;;;3.45;;
80398;SDS011;69722;48.642;9.142;2023-06-19T06:26:12;5.60;;;3.60;;
80398;SDS011;69722;48.642;9.142;2023-06-19T06:28:38;5.57;;;3.72;;
80398;SDS011;69722;48.642;9.142;2023-06-19T06:31:04;7.25;;;3.85;;
80398;SDS011;69722;48.642;9.142;2023-06-19T06:33:29;6.07;;;3.37;;
80398;SDS011;69722;48.642;9.142;2023-06-19T06:35:55;4.47;;;3.40;;
80398;SDS011;69722;48.642;9.142;2023-06-19T06:38:20;6.38;;;3.67;;
80398;SDS011;69722;48.642;9.142;2023-06-19T06:40:45;6.07;;;3.93;;
80398;SDS011;69722;48.642;9.142;2023-06-19T06:43:11;5.90;;;4.13;;
80398;SDS011;69722;48.642;9.142;2023-06-19T06:45:37;6.07;;;3.93;;
80398;SDS011;69722;48.642;9.142;2023-06-19T06:48:07;4.97;;;3.50;;
80398;SDS011;69722;48.642;9.142;2023-06-19T06:50:32;5.47;;;3.70;;
80398;SDS011;69722;48.642;9.142;2023-06-19T06:52:58;5.90;;;3.67;;
80398;SDS011;69722;48.642;9.142;2023-06-19T06:55:23;5.10;;;3.95;;
80398;SDS011;69722;48.642;9.142;2023-06-19T06:57:48;5.20;;;3.50;;
80398;SDS011;69722;48.642;9.142;2023-06-19T07:00:14;5.30;;;3.70;;
80398;SDS011;69722;48.642;9.142;2023-06-19T07:02:39;6.38;;;3.38;;
80398;SDS011;69722;48.642;9.142;2023-06-19T07:05:06;5.07;;;3.53;;
80398;SDS011;69722;48.642;9.142;2023-06-19T07:07:32;5.10;;;3.13;;
80398;SDS011;69722;48.642;9.142;2023-06-19T07:09:57;5.63;;;3.83;;
80398;SDS011;69722;48.642;9.142;2023-06-19T07:12:22;4.88;;;3.55;;
80398;SDS011;69722;48.642;9.142;2023-06-19T07:14:48;5.97;;;3.43;;
80398;SDS011;69722;48.642;9.142;2023-06-19T07:17:13;5.10;;;3.70;;
80398;SDS011;69722;48.642;9.142;2023-06-19T07:19:38;4.23;;;3.07;;
80398;SDS011;69722;48.642;9.142;2023-06-19T07:22:04;5.13;;;3.77;;
80398;SDS011;69722;48.642;9.142;2023-06-19T07:24:29;4.05;;;2.78;;
80398;SDS011;69722;48.642;9.142;2023-06-19T07:26:54;5.83;;;4.00;;
80398;SDS011;69722;48.642;9.142;2023-06-19T07:29:21;4.63;;;3.33;;
80398;SDS011;69722;48.642;9.142;2023-06-19T07:31:46;6.87;;;3.70;;
80398;SDS011;69722;48.642;9.142;2023-06-19T07:34:12;4.85;;;3.30;;
80398;SDS011;69722;48.642;9.142;2023-06-19T07:36:38;6.07;;;3.63;;
80398;SDS011;69722;48.642;9.142;2023-06-19T07:39:04;4.80;;;3.67;;
80398;SDS011;69722;48.642;9.142;2023-06-19T07:41:29;8.40;;;3.53;;
80398;SDS011;69722;48.642;9.142;2023-06-19T07:43:54;7.80;;;3.77;;
80398;SDS011;69722;48.642;9.142;2023-06-19T07:46:20;8.20;;;3.20;;
80398;SDS011;69722;48.642;9.142;2023-06-19T07:48:45;4.83;;;3.73;;
80398;SDS011;69722;48.642;9.142;2023-06-19T07:51:10;6.95;;;4.40;;
80398;SDS011;69722;48.642;9.142;2023-06-19T07:53:36;6.60;;;3.92;;
80398;SDS011;69722;48.642;9.142;2023-06-19T07:56:01;6.97;;;3.43;;
80398;SDS011;69722;48.642;9.142;2023-06-19T07:58:26;7.50;;;3.60;;
80398;SDS011;69722;48.642;9.142;2023-06-19T08:00:52;6.07;;;3.87;;
80398;SDS011;69722;48.642;9.142;2023-06-19T08:03:17;7.10;;;4.00;;
80398;SDS011;69722;48.642;9.142;2023-06-19T08:05:42;5.10;;;3.40;;
80398;SDS011;69722;48.642;9.142;2023-06-19T08:08:08;4.20;;;3.40;;
80398;SDS011;69722;48.642;9.142;2023-06-19T08:10:33;4.97;;;3.70;;
80398;SDS011;69722;48.642;9.142;2023-06-19T08:12:58;5.03;;;3.63;;
80398;SDS011;69722;48.642;9.142;2023-06-19T08:15:24;4.67;;;3.60;;
80398;SDS011;69722;48.642;9.142;2023-06-19T08:17:49;5.63;;;4.13;;
80398;SDS011;69722;48.642;9.142;2023-06-19T08:20:15;5.57;;;3.93;;
80398;SDS011;69722;48.642;9.142;2023-06-19T08:22:40;4.40;;;3.50;;
80398;SDS011;69722;48.642;9.142;2023-06-19T08:25:06;5.00;;;3.88;;
80398;SDS011;69722;48.642;9.142;2023-06-19T08:27:31;5.32;;;3.97;;
80398;SDS011;69722;48.642;9.142;2023-06-19T08:29:57;6.07;;;3.90;;
80398;SDS011;69722;48.642;9.142;2023-06-19T08:32:22;5.60;;;3.67;;
80398;SDS011;69722;48.642;9.142;2023-06-19T08:34:48;4.33;;;2.93;;
80398;SDS011;69722;48.642;9.142;2023-06-19T08:37:13;6.53;;;3.63;;
80398;SDS011;69722;48.642;9.142;2023-06-19T08:39:39;5.00;;;3.38;;
80398;SDS011;69722;48.642;9.142;2023-06-19T08:42:07;6.63;;;3.90;;
80398;SDS011;69722;48.642;9.142;2023-06-19T08:44:34;4.63;;;3.60;;
80398;SDS011;69722;48.642;9.142;2023-06-19T08:47:01;4.88;;;3.42;;
80398;SDS011;69722;48.642;9.142;2023-06-19T08:49:29;4.70;;;3.42;;
80398;SDS011;69722;48.642;9.142;2023-06-19T08:51:55;5.75;;;3.58;;
80398;SDS011;69722;48.642;9.142;2023-06-19T08:54:20;6.00;;;3.73;;
80398;SDS011;69722;48.642;9.142;2023-06-19T08:56:46;4.67;;;3.10;;
80398;SDS011;69722;48.642;9.142;2023-06-19T08:59:14;9.10;;;3.88;;
80398;SDS011;69722;48.642;9.142;2023-06-19T09:01:45;4.80;;;3.25;;
80398;SDS011;69722;48.642;9.142;2023-06-19T09:04:22;4.15;;;3.05;;
80398;SDS011;69722;48.642;9.142;2023-06-19T09:06:55;3.90;;;2.88;;
80398;SDS011;69722;48.642;9.142;2023-06-19T09:09:21;4.43;;;3.40;;
80398;SDS011;69722;48.642;9.142;2023-06-19T09:12:00;4.80;;;3.85;;
80398;SDS011;69722;48.642;9.142;2023-06-19T09:14:36;4.43;;;3.40;;
80398;SDS011;69722;48.642;9.142;2023-06-19T09:17:10;4.40;;;3.30;;
80398;SDS011;69722;48.642;9.142;2023-06-19T09:19:52;6.22;;;3.35;;
80398;SDS011;69722;48.642;9.142;2023-06-19T09:22:21;6.43;;;3.50;;
80398;SDS011;69722;48.642;9.142;2023-06-19T09:24:47;18.90;;;3.55;;
80398;SDS011;69722;48.642;9.142;2023-06-19T09:27:14;9.15;;;3.88;;
80398;SDS011;69722;48.642;9.142;2023-06-19T09:29:43;4.18;;;3.20;;
80398;SDS011;69722;48.642;9.142;2023-06-19T09:34:41;6.55;;;3.40;;
80398;SDS011;69722;48.642;9.142;2023-06-19T09:37:07;4.93;;;4.05;;
80398;SDS011;69722;48.642;9.142;2023-06-19T09:39:32;4.82;;;3.40;;
80398;SDS011;69722;48.642;9.142;2023-06-19T09:41:59;5.25;;;3.30;;
80398;SDS011;69722;48.642;9.142;2023-06-19T09:44:28;4.50;;;3.60;;
80398;SDS011;69722;48.642;9.142;2023-06-19T09:46:56;5.95;;;3.42;;
80398;SDS011;69722;48.642;9.142;2023-06-19T09:49:23;10.38;;;3.10;;
80398;SDS011;69722;48.642;9.142;2023-06-19T09:51:52;5.03;;;3.28;;
80398;SDS011;69722;48.642;9.142;2023-06-19T09:54:17;5.10;;;3.35;;
80398;SDS011;69722;48.642;9.142;2023-06-19T09:56:44;4.63;;;3.22;;
80398;SDS011;69722;48.642;9.142;2023-06-19T09:59:10;4.18;;;2.80;;
80398;SDS011;69722;48.642;9.142;2023-06-19T10:01:36;6.30;;;3.63;;
80398;SDS011;69722;48.642;9.142;2023-06-19T10:04:05;4.05;;;3.17;;
80398;SDS011;69722;48.642;9.142;2023-06-19T10:06:32;5.30;;;3.03;;
80398;SDS011;69722;48.642;9.142;2023-06-19T10:09:05;6.68;;;4.40;;
80398;SDS011;69722;48.642;9.142;2023-06-19T10:11:45;4.72;;;3.20;;
80398;SDS011;69722;48.642;9.142;2023-06-19T10:14:16;4.18;;;3.00;;
80398;SDS011;69722;48.642;9.142;2023-06-19T10:16:44;4.25;;;3.00;;
80398;SDS011;69722;48.642;9.142;2023-06-19T10:19:13;5.45;;;3.28;;
80398;SDS011;69722;48.642;9.142;2023-06-19T10:21:50;4.60;;;3.33;;
80398;SDS011;69722;48.642;9.142;2023-06-19T10:24:18;5.10;;;2.92;;
80398;SDS011;69722;48.642;9.142;2023-06-19T10:27:05;5.65;;;3.35;;
80398;SDS011;69722;48.642;9.142;2023-06-19T10:29:39;4.30;;;3.03;;
80398;SDS011;69722;48.642;9.142;2023-06-19T10:32:05;5.07;;;3.45;;
80398;SDS011;69722;48.642;9.142;2023-06-19T10:34:33;6.05;;;3.58;;
80398;SDS011;69722;48.642;9.142;2023-06-19T10:36:59;4.20;;;2.92;;
80398;SDS011;69722;48.642;9.142;2023-06-19T10:39:25;6.07;;;2.73;;
80398;SDS011;69722;48.642;9.142;2023-06-19T10:41:50;5.93;;;3.10;;
80398;SDS011;69722;48.642;9.142;2023-06-19T10:44:16;3.60;;;2.88;;
80398;SDS011;69722;48.642;9.142;2023-06-19T10:46:41;8.27;;;3.10;;
80398;SDS011;69722;48.642;9.142;2023-06-19T10:49:07;5.20;;;3.23;;
80398;SDS011;69722;48.642;9.142;2023-06-19T10:51:35;14.38;;;4.03;;
80398;SDS011;69722;48.642;9.142;2023-06-19T10:54:01;7.57;;;3.30;;
80398;SDS011;69722;48.642;9.142;2023-06-19T10:56:27;6.70;;;3.60;;
80398;SDS011;69722;48.642;9.142;2023-06-19T10:58:59;6.27;;;2.80;;
80398;SDS011;69722;48.642;9.142;2023-06-19T11:04:06;5.20;;;3.53;;
80398;SDS011;69722;48.642;9.142;2023-06-19T11:06:32;5.57;;;3.55;;
80398;SDS011;69722;48.642;9.142;2023-06-19T11:08:58;6.93;;;2.97;;
80398;SDS011;69722;48.642;9.142;2023-06-19T11:14:12;7.13;;;3.60;;
80398;SDS011;69722;48.642;9.142;2023-06-19T11:16:39;10.30;;;3.30;;
80398;SDS011;69722;48.642;9.142;2023-06-19T11:19:14;6.72;;;3.20;;
80398;SDS011;69722;48.642;9.142;2023-06-19T11:21:44;4.47;;;3.08;;
80398;SDS011;69722;48.642;9.142;2023-06-19T11:24:14;6.72;;;3.00;;
80398;SDS011;69722;48.642;9.142;2023-06-19T11:26:40;4.57;;;3.47;;
80398;SDS011;69722;48.642;9.142;2023-06-19T11:29:21;7.88;;;3.00;;
80398;SDS011;69722;48.642;9.142;2023-06-19T11:31:48;5.63;;;2.75;;
80398;SDS011;69722;48.642;9.142;2023-06-19T11:34:14;5.05;;;2.97;;
80398;SDS011;69722;48.642;9.142;2023-06-19T11:36:40;5.75;;;3.25;;
80398;SDS011;69722;48.642;9.142;2023-06-19T11:39:10;4.47;;;3.13;;
80398;SDS011;69722;48.642;9.142;2023-06-19T11:41:36;5.68;;;3.08;;
80398;SDS011;69722;48.642;9.142;2023-06-19T11:44:05;5.60;;;2.95;;
80398;SDS011;69722;48.642;9.142;2023-06-19T11:46:34;6.10;;;3.05;;
80398;SDS011;69722;48.642;9.142;2023-06-19T11:51:37;4.13;;;3.00;;
80398;SDS011;69722;48.642;9.142;2023-06-19T11:54:07;6.65;;;2.97;;
80398;SDS011;69722;48.642;9.142;2023-06-19T11:56:34;4.93;;;2.85;;
80398;SDS011;69722;48.642;9.142;2023-06-19T11:59:00;5.22;;;3.00;;
80398;SDS011;69722;48.642;9.142;2023-06-19T12:01:26;5.50;;;3.08;;
80398;SDS011;69722;48.642;9.142;2023-06-19T12:03:51;4.67;;;2.60;;
80398;SDS011;69722;48.642;9.142;2023-06-19T12:06:17;3.30;;;2.70;;
80398;SDS011;69722;48.642;9.142;2023-06-19T12:08:43;4.43;;;3.05;;
80398;SDS011;69722;48.642;9.142;2023-06-19T12:11:08;4.43;;;2.97;;
80398;SDS011;69722;48.642;9.142;2023-06-19T12:13:35;4.72;;;2.83;;
80398;SDS011;69722;48.642;9.142;2023-06-19T12:16:01;6.82;;;2.80;;
80398;SDS011;69722;48.642;9.142;2023-06-19T12:18:26;6.05;;;3.13;;
80398;SDS011;69722;48.642;9.142;2023-06-19T12:20:52;3.30;;;2.70;;
80398;SDS011;69722;48.642;9.142;2023-06-19T12:23:17;4.27;;;2.70;;
80398;SDS011;69722;48.642;9.142;2023-06-19T12:25:42;4.72;;;3.00;;
80398;SDS011;69722;48.642;9.142;2023-06-19T12:28:08;4.43;;;2.97;;
80398;SDS011;69722;48.642;9.142;2023-06-19T12:30:36;5.63;;;3.30;;
80398;SDS011;69722;48.642;9.142;2023-06-19T12:33:02;3.85;;;2.70;;
80398;SDS011;69722;48.642;9.142;2023-06-19T12:35:28;6.65;;;3.00;;
80398;SDS011;69722;48.642;9.142;2023-06-19T12:37:57;4.30;;;3.08;;
80398;SDS011;69722;48.642;9.142;2023-06-19T12:40:22;3.83;;;2.80;;
80398;SDS011;69722;48.642;9.142;2023-06-19T12:42:48;4.88;;;2.67;;
80398;SDS011;69722;48.642;9.142;2023-06-19T12:45:15;5.28;;;2.90;;
80398;SDS011;69722;48.642;9.142;2023-06-19T12:47:40;4.85;;;2.78;;
80398;SDS011;69722;48.642;9.142;2023-06-19T12:50:06;4.30;;;2.87;;
80398;SDS011;69722;48.642;9.142;2023-06-19T12:52:32;3.30;;;2.50;;
80398;SDS011;69722;48.642;9.142;2023-06-19T12:54:57;4.40;;;2.78;;
80398;SDS011;69722;48.642;9.142;2023-06-19T12:57:26;4.25;;;2.92;;
80398;SDS011;69722;48.642;9.142;2023-06-19T12:59:51;5.07;;;2.88;;
80398;SDS011;69722;48.642;9.142;2023-06-19T13:02:17;5.40;;;3.08;;
80398;SDS011;69722;48.642;9.142;2023-06-19T13:04:42;5.00;;;3.17;;
80398;SDS011;69722;48.642;9.142;2023-06-19T13:07:07;6.37;;;2.90;;
80398;SDS011;69722;48.642;9.142;2023-06-19T13:09:33;3.50;;;2.40;;
80398;SDS011;69722;48.642;9.142;2023-06-19T13:11:58;3.90;;;2.80;;
80398;SDS011;69722;48.642;9.142;2023-06-19T13:14:23;4.63;;;3.00;;
80398;SDS011;69722;48.642;9.142;2023-06-19T13:16:49;3.17;;;2.40;;
80398;SDS011;69722;48.642;9.142;2023-06-19T13:19:14;5.40;;;2.80;;
80398;SDS011;69722;48.642;9.142;2023-06-19T13:21:40;3.60;;;2.70;;
80398;SDS011;69722;48.642;9.142;2023-06-19T13:24:06;4.72;;;2.65;;
80398;SDS011;69722;48.642;9.142;2023-06-19T13:26:32;4.03;;;3.00;;
80398;SDS011;69722;48.642;9.142;2023-06-19T13:28:57;3.83;;;2.70;;
80398;SDS011;69722;48.642;9.142;2023-06-19T13:31:24;4.20;;;3.00;;
80398;SDS011;69722;48.642;9.142;2023-06-19T13:33:50;4.97;;;3.13;;
80398;SDS011;69722;48.642;9.142;2023-06-19T13:36:15;4.77;;;3.00;;
80398;SDS011;69722;48.642;9.142;2023-06-19T13:38:41;4.55;;;2.83;;
80398;SDS011;69722;48.642;9.142;2023-06-19T13:41:07;3.90;;;3.00;;
80398;SDS011;69722;48.642;9.142;2023-06-19T13:43:32;6.20;;;3.23;;
80398;SDS011;69722;48.642;9.142;2023-06-19T13:45:58;3.92;;;2.65;;
80398;SDS011;69722;48.642;9.142;2023-06-19T13:48:23;4.57;;;2.60;;
80398;SDS011;69722;48.642;9.142;2023-06-19T13:50:49;3.03;;;2.30;;
80398;SDS011;69722;48.642;9.142;2023-06-19T13:53:14;3.83;;;2.50;;
80398;SDS011;69722;48.642;9.142;2023-06-19T13:55:39;4.07;;;2.70;;
80398;SDS011;69722;48.642;9.142;2023-06-19T13:58:05;3.70;;;2.70;;
80398;SDS011;69722;48.642;9.142;2023-06-19T14:00:31;3.72;;;2.53;;
80398;SDS011;69722;48.642;9.142;2023-06-19T14:02:57;4.03;;;2.70;;
80398;SDS011;69722;48.642;9.142;2023-06-19T14:05:22;3.38;;;2.55;;
80398;SDS011;69722;48.642;9.142;2023-06-19T14:07:47;3.87;;;3.00;;
80398;SDS011;69722;48.642;9.142;2023-06-19T14:10:13;3.42;;;2.38;;
80398;SDS011;69722;48.642;9.142;2023-06-19T14:12:38;3.63;;;2.83;;
80398;SDS011;69722;48.642;9.142;2023-06-19T14:15:05;3.60;;;2.80;;
80398;SDS011;69722;48.642;9.142;2023-06-19T14:17:32;3.67;;;2.70;;
80398;SDS011;69722;48.642;9.142;2023-06-19T14:19:57;4.03;;;2.88;;
80398;SDS011;69722;48.642;9.142;2023-06-19T14:22:22;3.43;;;2.40;;
80398;SDS011;69722;48.642;9.142;2023-06-19T14:24:48;4.67;;;2.97;;
80398;SDS011;69722;48.642;9.142;2023-06-19T14:27:14;3.92;;;3.25;;
80398;SDS011;69722;48.642;9.142;2023-06-19T14:29:40;3.13;;;2.40;;
80398;SDS011;69722;48.642;9.142;2023-06-19T14:32:05;4.70;;;2.63;;
80398;SDS011;69722;48.642;9.142;2023-06-19T14:34:30;3.33;;;2.53;;
80398;SDS011;69722;48.642;9.142;2023-06-19T14:36:55;3.43;;;2.87;;
80398;SDS011;69722;48.642;9.142;2023-06-19T14:39:21;4.43;;;2.92;;
80398;SDS011;69722;48.642;9.142;2023-06-19T14:41:46;3.87;;;2.50;;
80398;SDS011;69722;48.642;9.142;2023-06-19T14:44:11;3.43;;;2.37;;
80398;SDS011;69722;48.642;9.142;2023-06-19T14:46:37;3.75;;;2.53;;
80398;SDS011;69722;48.642;9.142;2023-06-19T14:49:07;4.53;;;2.58;;
80398;SDS011;69722;48.642;9.142;2023-06-19T14:51:34;5.40;;;2.65;;
80398;SDS011;69722;48.642;9.142;2023-06-19T14:54:00;3.60;;;2.80;;
80398;SDS011;69722;48.642;9.142;2023-06-19T14:56:25;4.37;;;2.73;;
80398;SDS011;69722;48.642;9.142;2023-06-19T14:58:50;3.30;;;2.37;;